Time;durP1;ratioP1;P1;durP2;ratioP2;P2;SDS_P1;SDS_P2;PMS_P1;PMS_P2;Temp;Humidity;BMP_temperature;BMP_pressure;BME280_temperature;BME280_humidity;BME280_pressure;Samples;Min_cycle;Max_cycle;Signal;HPM_P1;HPM_P2
2021/08/20 00:03:14;;;;;;;1.45;1.40;;;;;;;19.41;80.98;96245.84;5171896;57;20120;-81
2021/08/20 00:08:16;;;;;;;2.03;1.50;;;;;;;19.35;81.89;96248.72;5168149;57;20148;-81
2021/08/20 00:13:19;;;;;;;1.63;1.25;;;;;;;19.26;82.57;96240.59;5168820;57;20235;-81
2021/08/20 00:18:21;;;;;;;1.33;1.25;;;;;;;19.19;83.88;96250.34;5169871;57;20169;-81
2021/08/20 00:23:23;;;;;;;1.70;1.60;;;;;;;19.41;83.40;96254.25;5170604;57;20129;-81
2021/08/20 00:28:26;;;;;;;1.60;1.50;;;;;;;19.33;82.85;96254.81;5169521;57;20125;-80
2021/08/20 00:33:28;;;;;;;1.77;1.67;;;;;;;19.43;83.35;96243.28;5169310;57;20603;-80
2021/08/20 00:38:34;;;;;;;1.33;1.33;;;;;;;19.51;82.20;96245.00;5168674;57;20337;-80
2021/08/20 00:43:37;;;;;;;1.80;1.70;;;;;;;19.32;82.56;96238.50;5168866;57;20121;-80
2021/08/20 00:48:40;;;;;;;2.60;1.88;;;;;;;19.34;82.33;96221.94;5168991;57;20139;-80
2021/08/20 00:53:43;;;;;;;1.65;1.55;;;;;;;19.24;83.21;96229.16;5168701;57;20160;-80
2021/08/20 00:58:48;;;;;;;1.88;1.77;;;;;;;19.33;82.69;96223.22;5168711;57;20129;-80
2021/08/20 01:03:50;;;;;;;3.97;1.75;;;;;;;19.08;83.44;96222.41;5176486;57;20155;-80
2021/08/20 01:08:53;;;;;;;1.58;1.48;;;;;;;19.11;83.36;96224.16;5171137;57;20121;-80
2021/08/20 01:13:55;;;;;;;3.22;2.17;;;;;;;18.68;82.12;96230.84;5180107;57;20138;-79
2021/08/20 01:18:58;;;;;;;3.20;2.03;;;;;;;18.96;80.73;96220.22;5177524;57;20134;-80
2021/08/20 01:24:02;;;;;;;2.28;2.08;;;;;;;18.94;80.86;96219.97;5170024;57;20177;-80
2021/08/20 01:29:04;;;;;;;2.33;2.20;;;;;;;18.85;80.24;96211.91;5183071;57;20112;-78
2021/08/20 01:34:07;;;;;;;3.55;2.30;;;;;;;18.51;82.14;96214.16;5178308;57;20129;-79
2021/08/20 01:39:09;;;;;;;2.63;2.25;;;;;;;18.53;80.51;96206.00;5169440;57;20121;-80
2021/08/20 01:44:11;;;;;;;2.20;1.77;;;;;;;18.20;83.87;96204.13;5177787;57;20125;-80
2021/08/20 01:49:14;;;;;;;2.70;1.98;;;;;;;18.18;84.88;96195.44;5170573;57;20143;-81
2021/08/20 01:54:16;;;;;;;1.75;1.65;;;;;;;18.38;83.42;96188.75;5169874;57;20125;-81
2021/08/20 01:59:18;;;;;;;1.63;1.52;;;;;;;18.24;84.04;96193.41;5169963;57;20134;-81
2021/08/20 02:04:21;;;;;;;1.73;1.63;;;;;;;18.19;84.87;96199.78;5169081;57;20694;-81
2021/08/20 02:09:23;;;;;;;2.05;1.88;;;;;;;18.04;85.66;96202.16;5171047;57;20134;-81
2021/08/20 02:14:26;;;;;;;2.75;1.67;;;;;;;18.10;84.31;96191.69;5169528;57;20138;-80
2021/08/20 02:19:28;;;;;;;4.50;2.40;;;;;;;17.95;85.15;96188.47;5168935;57;20107;-81
2021/08/20 02:24:30;;;;;;;2.08;1.88;;;;;;;17.85;85.82;96187.22;5168997;57;20124;-80
2021/08/20 02:29:33;;;;;;;1.95;1.77;;;;;;;17.74;86.07;96201.22;5168117;57;20134;-81
2021/08/20 02:34:35;;;;;;;2.08;1.85;;;;;;;17.71;85.79;96182.69;5168366;57;20116;-80
2021/08/20 02:39:38;;;;;;;1.88;1.77;;;;;;;17.66;86.30;96183.47;5165257;57;20601;-81
2021/08/20 02:44:40;;;;;;;1.73;1.60;;;;;;;17.56;86.92;96177.41;5170953;57;20332;-81
2021/08/20 02:49:43;;;;;;;2.40;1.70;;;;;;;17.58;87.64;96179.66;5172975;57;20124;-80
2021/08/20 02:54:45;;;;;;;2.00;1.90;;;;;;;17.59;87.70;96187.56;5169968;57;20711;-78
2021/08/20 02:59:47;;;;;;;2.80;1.77;;;;;;;17.70;86.76;96186.75;5167548;57;20695;-80
2021/08/20 03:04:50;;;;;;;2.55;2.03;;;;;;;17.76;86.16;96190.28;5167104;57;20231;-80
2021/08/20 03:09:52;;;;;;;2.50;2.30;;;;;;;17.68;85.71;96194.91;5167297;57;20583;-82
2021/08/20 03:14:55;;;;;;;2.00;1.80;;;;;;;17.60;86.15;96180.69;5167216;57;20139;-81
2021/08/20 03:19:57;;;;;;;3.75;2.30;;;;;;;17.69;85.70;96186.00;5167328;57;20152;-81
2021/08/20 03:25:00;;;;;;;2.35;1.98;;;;;;;17.52;86.64;96193.66;5167319;57;20213;-81
2021/08/20 03:30:03;;;;;;;4.00;2.33;;;;;;;17.53;86.73;96188.81;5163276;57;20692;-80
2021/08/20 03:35:06;;;;;;;2.45;2.25;;;;;;;17.60;86.87;96197.44;5163335;57;20143;-81
2021/08/20 03:40:09;;;;;;;2.40;2.20;;;;;;;17.60;86.62;96196.69;5165459;57;20134;-81
2021/08/20 03:45:11;;;;;;;3.10;2.08;;;;;;;17.64;86.72;96195.16;5165417;57;20125;-80
2021/08/20 03:50:15;;;;;;;3.00;2.45;;;;;;;17.67;87.39;96191.34;5165431;57;20129;-81
2021/08/20 03:55:17;;;;;;;2.17;2.08;;;;;;;17.79;86.96;96206.81;5165129;57;20143;-81
2021/08/20 04:00:20;;;;;;;3.05;2.40;;;;;;;17.76;87.45;96216.22;5179693;57;20134;-82
2021/08/20 04:05:23;;;;;;;2.63;2.42;;;;;;;17.85;87.37;96212.38;5168966;57;20130;-81
2021/08/20 04:10:25;;;;;;;2.63;2.42;;;;;;;17.89;87.05;96216.41;5166658;57;20156;-81
2021/08/20 04:15:28;;;;;;;3.00;2.38;;;;;;;17.85;87.26;96210.34;5174518;57;20684;-80
2021/08/20 04:20:32;;;;;;;2.47;2.25;;;;;;;17.80;88.22;96219.50;5185121;57;20116;-82
2021/08/20 04:25:35;;;;;;;2.00;1.90;;;;;;;17.83;87.61;96228.91;5170142;57;20662;-81
2021/08/20 04:30:42;;;;;;;3.45;2.13;;;;;;;17.82;87.50;96232.97;5166093;57;20169;-81
2021/08/20 04:35:45;;;;;;;2.38;2.17;;;;;;;17.92;86.62;96243.38;5165085;57;20107;-81
2021/08/20 04:40:47;;;;;;;2.55;1.92;;;;;;;17.89;86.92;96257.59;5164750;57;20663;-81
2021/08/20 04:45:49;;;;;;;5.63;2.10;;;;;;;17.97;86.72;96246.66;5163541;57;20134;-81
2021/08/20 04:50:53;;;;;;;3.03;2.17;;;;;;;18.03;86.52;96250.19;5164446;57;20186;-81
2021/08/20 04:55:56;;;;;;;3.08;2.38;;;;;;;18.21;85.48;96250.38;5164448;57;20138;-81
2021/08/20 05:00:58;;;;;;;3.17;2.42;;;;;;;18.06;86.19;96247.13;5166448;57;20147;-81
2021/08/20 05:06:01;;;;;;;2.65;2.08;;;;;;;18.27;85.88;96255.97;5167543;57;20668;-81
2021/08/20 05:11:04;;;;;;;3.88;3.40;;;;;;;18.02;86.17;96249.44;5167804;57;20129;-81
2021/08/20 05:16:07;;;;;;;3.42;2.95;;;;;;;18.47;84.31;96248.00;5167370;57;20639;-81
2021/08/20 05:21:09;;;;;;;3.15;2.88;;;;;;;18.57;83.37;96268.03;5167074;57;20682;-81
2021/08/20 05:26:11;;;;;;;3.00;2.63;;;;;;;18.47;83.23;96269.63;5167168;57;20116;-80
2021/08/20 05:31:14;;;;;;;4.72;3.00;;;;;;;18.75;81.99;96277.88;5168287;57;20138;-81
2021/08/20 05:36:17;;;;;;;3.35;3.00;;;;;;;18.28;84.68;96291.81;5170216;57;20134;-81
2021/08/20 05:41:19;;;;;;;6.25;3.60;;;;;;;18.53;83.37;96292.75;5168467;57;20125;-80
2021/08/20 05:46:22;;;;;;;4.47;3.10;;;;;;;19.03;80.90;96286.88;5167676;57;20134;-80
2021/08/20 05:51:26;;;;;;;3.22;2.85;;;;;;;19.49;78.83;96286.06;5164813;57;20222;-79
2021/08/20 05:56:28;;;;;;;3.15;2.50;;;;;;;19.88;77.45;96295.63;5164827;57;20125;-80
2021/08/20 06:01:31;;;;;;;4.07;2.65;;;;;;;19.90;78.02;96297.91;5174644;57;20134;-80
2021/08/20 06:06:38;;;;;;;5.07;2.67;;;;;;;20.19;77.72;96290.72;5166468;57;20574;-80
2021/08/20 06:11:40;;;;;;;5.82;2.90;;;;;;;20.32;77.88;96290.84;5166631;57;20138;-80
2021/08/20 06:16:42;;;;;;;3.03;2.83;;;;;;;20.40;77.07;96274.94;5167178;57;20142;-80
2021/08/20 06:21:45;;;;;;;4.65;2.80;;;;;;;20.49;76.50;96277.38;5171462;57;20125;-80
2021/08/20 06:26:47;;;;;;;3.38;2.60;;;;;;;21.00;73.81;96276.19;5165922;57;20654;-80
2021/08/20 06:31:50;;;;;;;5.45;2.95;;;;;;;21.24;72.23;96280.94;5174281;57;20124;-81
2021/08/20 06:36:52;;;;;;;3.25;2.72;;;;;;;21.37;72.45;96293.00;5186870;57;20190;-80
2021/08/20 06:41:55;;;;;;;3.67;3.13;;;;;;;21.21;72.74;96298.91;5190129;57;20142;-81
2021/08/20 06:46:57;;;;;;;3.22;2.92;;;;;;;21.29;72.69;96306.16;5186367;57;20120;-80
2021/08/20 06:52:00;;;;;;;3.83;3.40;;;;;;;21.58;70.14;96306.47;5186655;57;20148;-80
2021/08/20 06:57:03;;;;;;;6.38;3.42;;;;;;;21.78;69.73;96297.47;5186249;57;20173;-81
2021/08/20 07:02:05;;;;;;;3.08;2.78;;;;;;;21.80;69.63;96306.88;5185924;57;20164;-78
2021/08/20 07:07:08;;;;;;;3.67;3.30;;;;;;;22.26;68.50;96311.19;5181875;57;20674;-80
2021/08/20 07:12:10;;;;;;;5.75;3.50;;;;;;;21.84;69.54;96303.78;5207791;57;20172;-78
2021/08/20 07:17:12;;;;;;;9.10;3.65;;;;;;;22.12;67.45;96309.66;5189846;57;20129;-80
2021/08/20 07:22:15;;;;;;;4.82;3.55;;;;;;;21.43;71.28;96312.59;5186826;57;20147;-81
2021/08/20 07:27:18;;;;;;;4.22;3.35;;;;;;;22.93;63.37;96307.81;5186557;57;20128;-81
2021/08/20 07:32:21;;;;;;;6.53;4.20;;;;;;;23.08;65.53;96313.63;5186274;57;20123;-81
2021/08/20 07:37:23;;;;;;;6.22;3.75;;;;;;;22.74;65.54;96307.19;5186653;57;20129;-80
2021/08/20 07:42:25;;;;;;;4.10;3.63;;;;;;;22.81;66.25;96312.16;5186876;57;20124;-80
2021/08/20 07:47:28;;;;;;;4.45;3.50;;;;;;;23.22;62.16;96303.06;5186029;57;20129;-80
2021/08/20 07:52:30;;;;;;;5.40;4.40;;;;;;;22.68;64.04;96310.13;5186223;57;20119;-80
2021/08/20 07:57:50;;;;;;;4.18;3.85;;;;;;;21.90;67.08;96319.25;5186097;57;20762;-80
2021/08/20 08:02:54;;;;;;;5.18;3.85;;;;;;;23.26;63.30;96326.81;5178965;57;20115;-80
2021/08/20 08:07:58;;;;;;;7.10;3.70;;;;;;;23.19;63.88;96312.63;5185981;57;20688;-81
2021/08/20 08:13:00;;;;;;;5.80;4.30;;;;;;;22.41;63.91;96324.75;5187187;57;20120;-80
2021/08/20 08:18:03;;;;;;;4.53;3.53;;;;;;;22.46;64.05;96327.44;5184016;57;20119;-80
2021/08/20 08:23:05;;;;;;;6.28;3.88;;;;;;;23.19;61.93;96338.00;5186104;57;20172;-81
2021/08/20 08:28:08;;;;;;;5.35;3.70;;;;;;;23.06;61.98;96338.03;5184499;57;20137;-79
2021/08/20 08:33:11;;;;;;;5.10;3.90;;;;;;;22.46;62.53;96341.53;5184511;57;20142;-80
2021/08/20 08:38:33;;;;;;;5.65;3.50;;;;;;;22.97;62.08;96352.56;5188091;57;20177;-79
2021/08/20 08:43:35;;;;;;;4.22;3.58;;;;;;;23.60;59.31;96354.25;5189099;57;20178;-80
2021/08/20 08:48:42;;;;;;;4.03;3.58;;;;;;;24.00;58.71;96362.00;5188845;57;20128;-80
2021/08/20 08:53:48;;;;;;;7.70;3.80;;;;;;;23.15;61.23;96346.78;5181449;57;20222;-79
2021/08/20 08:58:51;;;;;;;6.00;5.40;;;;;;;22.11;63.93;96353.94;5188258;57;20239;-80
2021/08/20 09:04:13;;;;;;;5.13;4.63;;;;;;;22.62;63.66;96357.38;5187440;57;20673;-80
2021/08/20 09:09:18;;;;;;;4.97;4.35;;;;;;;22.11;65.48;96358.81;5189652;57;20146;-80
2021/08/20 09:14:32;;;;;;;9.90;4.00;;;;;;;22.55;64.89;96362.84;5190507;57;20150;-79
2021/08/20 09:19:34;;;;;;;5.55;4.22;;;;;;;22.81;63.45;96352.38;5187592;57;20129;-79
2021/08/20 09:24:43;;;;;;;5.30;4.50;;;;;;;23.32;60.17;96352.03;5188561;57;20128;-77
2021/08/20 09:30:07;;;;;;;4.35;3.92;;;;;;;24.21;61.60;96350.72;5187990;57;20123;-78
2021/08/20 09:35:10;;;;;;;4.43;3.60;;;;;;;24.86;59.10;96341.00;5188343;57;20138;-80
2021/08/20 09:40:15;;;;;;;8.05;4.05;;;;;;;24.54;57.30;96347.00;5188221;57;20124;-78
2021/08/20 09:45:20;;;;;;;4.80;4.30;;;;;;;25.43;56.09;96353.72;5192662;57;20652;-81
2021/08/20 09:50:40;;;;;;;5.63;4.03;;;;;;;26.76;50.02;96352.13;5196346;57;20124;-80
2021/08/20 09:55:44;;;;;;;4.20;3.80;;;;;;;26.42;52.27;96342.50;5197518;57;20126;-80
2021/08/20 10:00:48;;;;;;;4.25;3.67;;;;;;;26.92;49.06;96345.09;5197316;57;20098;-78
2021/08/20 10:05:52;;;;;;;4.75;3.53;;;;;;;27.73;49.58;96338.88;5206693;57;20098;-80
2021/08/20 10:10:55;;;;;;;5.47;3.83;;;;;;;29.16;43.26;96347.47;5191811;57;20124;-79
2021/08/20 10:16:00;;;;;;;3.90;3.33;;;;;;;29.67;42.75;96338.88;5189399;57;20128;-80
2021/08/20 10:21:02;;;;;;;5.40;3.30;;;;;;;27.81;46.81;96332.38;5188336;57;20177;-80
2021/08/20 10:26:06;;;;;;;3.70;2.90;;;;;;;26.47;47.41;96324.56;5188319;57;20119;-81
2021/08/20 10:31:14;;;;;;;2.72;2.53;;;;;;;29.03;37.75;96320.13;5187023;57;20138;-80
2021/08/20 10:36:34;;;;;;;;;;;;;;;30.84;38.70;96324.47;5187675;57;20227;-80
2021/08/20 10:41:36;;;;;;;1.75;1.55;;;;;;;30.87;38.82;96312.63;5178931;57;19994;-79
2021/08/20 10:46:42;;;;;;;2.50;1.83;;;;;;;31.32;35.70;96315.94;5187331;57;20115;-79
2021/08/20 10:51:55;;;;;;;1.80;1.70;;;;;;;29.84;36.53;96320.25;5185800;57;20216;-79
2021/08/20 10:56:58;;;;;;;1.70;1.60;;;;;;;31.95;34.90;96327.69;5185239;57;20191;-81
2021/08/20 11:02:19;;;;;;;3.03;2.30;;;;;;;31.04;32.95;96326.78;5187648;57;20115;-81
2021/08/20 11:07:43;;;;;;;2.42;1.80;;;;;;;33.33;32.18;96315.00;5181440;57;20120;-80
2021/08/20 11:12:52;;;;;;;2.50;2.20;;;;;;;32.97;30.72;96324.78;5188492;57;20120;-81
2021/08/20 11:17:58;;;;;;;2.10;1.90;;;;;;;30.54;35.45;96313.59;5187429;57;20207;-80
2021/08/20 11:23:10;;;;;;;3.80;2.17;;;;;;;27.43;39.17;96326.94;5186738;57;20124;-79
2021/08/20 11:28:19;;;;;;;2.05;1.95;;;;;;;28.43;39.29;96317.88;5187286;57;20133;-80
2021/08/20 11:33:27;;;;;;;2.20;2.00;;;;;;;29.45;39.01;96334.25;5186590;57;20141;-79
2021/08/20 11:38:34;;;;;;;2.70;2.30;;;;;;;27.93;39.13;96322.81;5186391;57;20688;-80
2021/08/20 11:43:37;;;;;;;2.40;1.80;;;;;;;28.72;34.74;96324.63;5186459;57;20120;-79
2021/08/20 11:48:47;;;;;;;3.92;2.55;;;;;;;28.39;35.93;96328.91;5186103;57;21588;-80
2021/08/20 11:53:50;;;;;;;2.15;2.00;;;;;;;28.42;39.49;96317.16;5184907;57;20133;-80
2021/08/20 11:58:53;;;;;;;3.45;1.90;;;;;;;28.49;36.05;96320.50;5183885;57;20128;-80
2021/08/20 12:03:58;;;;;;;1.80;1.70;;;;;;;29.64;36.06;96322.22;5185783;57;20137;-80
2021/08/20 12:09:12;;;;;;;1.80;1.70;;;;;;;29.77;37.16;96319.78;5187147;57;20178;-79
2021/08/20 12:14:34;;;;;;;1.90;1.80;;;;;;;29.54;35.88;96319.31;5188856;57;20144;-80
2021/08/20 12:19:44;;;;;;;1.85;1.60;;;;;;;29.17;37.75;96303.50;5185087;57;20129;-80
2021/08/20 12:24:51;;;;;;;2.40;1.80;;;;;;;27.31;35.07;96305.97;5168829;57;20125;-79
2021/08/20 12:29:57;;;;;;;2.67;2.20;;;;;;;26.60;37.37;96302.41;5176640;57;20130;-78
2021/08/20 12:35:12;;;;;;;2.72;1.90;;;;;;;26.99;41.72;96298.94;5170515;57;20160;-79
2021/08/20 12:40:44;;;;;;;2.00;1.88;;;;;;;28.01;35.21;96303.69;5169505;57;20124;-78
2021/08/20 12:46:19;;;;;;;1.67;1.58;;;;;;;28.56;37.07;96305.47;5169691;57;20125;-79
2021/08/20 12:51:22;;;;;;;1.95;1.85;;;;;;;27.62;36.39;96295.97;5156632;57;20169;-77
2021/08/20 12:56:39;;;;;;;3.17;1.70;;;;;;;27.97;39.26;96302.53;5203751;57;20182;-80
2021/08/20 13:01:42;;;;;;;1.77;1.67;;;;;;;29.32;34.71;96302.53;5187861;57;20176;-78
2021/08/20 13:06:45;;;;;;;4.45;3.13;;;;;;;28.88;32.88;96305.34;5184036;57;20138;-77
2021/08/20 13:11:48;;;;;;;1.95;1.67;;;;;;;26.94;38.43;96311.22;5182754;57;20174;-73
2021/08/20 13:16:55;;;;;;;1.75;1.65;;;;;;;27.00;37.02;96300.41;5181158;57;20133;-74
2021/08/20 13:21:57;;;;;;;1.83;1.60;;;;;;;27.91;37.09;96291.41;5181102;57;20115;-73
2021/08/20 13:27:00;;;;;;;2.30;2.15;;;;;;;27.38;35.60;96291.00;5180998;57;20137;-73
2021/08/20 13:32:03;;;;;;;2.33;1.88;;;;;;;27.22;37.22;96296.00;5181319;57;20128;-73
2021/08/20 13:37:06;;;;;;;2.63;2.15;;;;;;;26.45;39.78;96287.53;5180901;57;20156;-74
2021/08/20 13:42:09;;;;;;;2.45;2.25;;;;;;;27.01;39.04;96292.66;5181074;57;20132;-74
2021/08/20 13:47:12;;;;;;;3.90;2.00;;;;;;;27.41;39.79;96292.72;5181178;57;20128;-73
2021/08/20 13:52:14;;;;;;;2.20;2.05;;;;;;;27.76;37.05;96285.84;5181535;57;20133;-74
2021/08/20 13:57:16;;;;;;;2.22;1.90;;;;;;;27.74;37.34;96285.66;5180495;57;20132;-75
2021/08/20 14:02:19;;;;;;;1.90;1.80;;;;;;;28.86;34.55;96291.69;5181329;57;20137;-74
2021/08/20 14:07:22;;;;;;;1.98;1.77;;;;;;;28.72;35.85;96286.94;5180358;57;20677;-74
2021/08/20 14:12:24;;;;;;;2.47;1.80;;;;;;;29.03;37.66;96288.06;5180626;57;20120;-75
2021/08/20 14:17:27;;;;;;;2.65;1.90;;;;;;;28.48;37.42;96282.78;5180149;57;20129;-75
2021/08/20 14:22:29;;;;;;;1.90;1.80;;;;;;;29.25;34.49;96286.31;5180620;57;20836;-75
2021/08/20 14:27:32;;;;;;;3.40;1.90;;;;;;;28.47;35.76;96289.81;5180084;57;20124;-74
2021/08/20 14:32:34;;;;;;;3.50;1.92;;;;;;;27.70;38.49;96280.38;5180225;57;20137;-74
2021/08/20 14:37:37;;;;;;;2.13;1.92;;;;;;;27.59;38.17;96285.78;5180009;57;20142;-73
2021/08/20 14:42:39;;;;;;;3.92;1.88;;;;;;;27.82;36.13;96288.47;5180246;57;20656;-74
2021/08/20 14:47:42;;;;;;;2.30;2.10;;;;;;;26.94;39.90;96296.28;5179808;57;20111;-73
2021/08/20 14:52:45;;;;;;;2.65;2.45;;;;;;;26.52;39.44;96295.25;5180450;57;20142;-73
2021/08/20 14:57:48;;;;;;;2.15;1.95;;;;;;;25.71;41.12;96296.22;5179591;57;20128;-77
2021/08/20 15:02:56;;;;;;;2.20;2.00;;;;;;;25.72;41.39;96291.31;5180030;57;20190;-76
2021/08/20 15:07:58;;;;;;;3.40;1.67;;;;;;;26.96;42.68;96290.78;5180072;57;20625;-76
2021/08/20 15:13:09;;;;;;;3.13;2.30;;;;;;;26.91;38.38;96289.69;5180570;57;20128;-77
2021/08/20 15:18:12;;;;;;;3.65;2.28;;;;;;;26.96;37.56;96285.88;5186446;57;20142;-77
2021/08/20 15:23:14;;;;;;;2.50;2.30;;;;;;;26.57;38.80;96291.47;5188998;57;20140;-77
2021/08/20 15:28:17;;;;;;;5.38;1.92;;;;;;;26.95;42.70;96292.91;5182840;57;20115;-78
2021/08/20 15:33:19;;;;;;;2.33;1.80;;;;;;;26.78;39.87;96289.16;5192265;57;20125;-79
2021/08/20 15:38:22;;;;;;;2.13;1.92;;;;;;;26.28;40.77;96291.69;5182889;57;20120;-78
2021/08/20 15:43:25;;;;;;;3.13;1.92;;;;;;;26.07;42.05;96287.56;5174223;57;20649;-75
2021/08/20 15:48:27;;;;;;;1.92;1.83;;;;;;;25.60;42.53;96291.66;5160642;57;20129;-75
2021/08/20 15:53:30;;;;;;;3.20;2.38;;;;;;;25.39;42.53;96299.53;5159086;57;20130;-74
2021/08/20 15:58:32;;;;;;;2.25;2.08;;;;;;;25.28;41.34;96299.88;5159474;57;20129;-76
2021/08/20 16:03:34;;;;;;;3.70;2.40;;;;;;;25.50;41.91;96289.97;5178782;57;20159;-75
2021/08/20 16:08:37;;;;;;;2.67;2.03;;;;;;;25.50;41.63;96287.91;5178916;57;20657;-76
2021/08/20 16:13:40;;;;;;;2.58;2.25;;;;;;;25.22;42.55;96301.34;5179073;57;20125;-76
2021/08/20 16:18:42;;;;;;;2.17;1.98;;;;;;;25.32;41.86;96286.13;5178750;57;20128;-76
2021/08/20 16:23:45;;;;;;;2.20;1.95;;;;;;;25.17;42.87;96293.81;5179166;57;20129;-77
2021/08/20 16:28:48;;;;;;;1.67;1.58;;;;;;;25.15;43.75;96285.16;5178927;57;20128;-77
2021/08/20 16:33:50;;;;;;;2.47;2.10;;;;;;;24.55;43.57;96296.91;5179449;57;20119;-76
2021/08/20 16:38:52;;;;;;;2.13;1.77;;;;;;;25.02;43.14;96302.22;5179769;57;20137;-77
2021/08/20 16:43:55;;;;;;;2.42;2.22;;;;;;;24.98;42.61;96293.38;5177244;57;20122;-77
2021/08/20 16:48:58;;;;;;;2.17;1.90;;;;;;;25.02;44.76;96299.41;5178350;57;20119;-77
2021/08/20 16:54:01;;;;;;;2.92;1.55;;;;;;;24.95;45.18;96303.72;5178603;57;20124;-77
2021/08/20 16:59:04;;;;;;;2.45;1.70;;;;;;;24.79;44.01;96299.31;5181278;57;20119;-77
2021/08/20 17:04:06;;;;;;;2.38;1.90;;;;;;;24.66;46.22;96307.88;5181273;57;20121;-76
2021/08/20 17:09:08;;;;;;;2.00;1.90;;;;;;;24.61;49.88;96303.13;5180933;57;20129;-76
2021/08/20 17:14:11;;;;;;;2.22;2.13;;;;;;;24.38;48.50;96283.22;5181770;57;20137;-76
2021/08/20 17:19:14;;;;;;;2.30;2.10;;;;;;;24.32;47.74;96296.75;5180969;57;20119;-76
2021/08/20 17:24:16;;;;;;;2.08;1.55;;;;;;;24.19;50.31;96297.63;5180405;57;20138;-77
2021/08/20 17:29:18;;;;;;;3.53;1.98;;;;;;;23.92;48.46;96303.97;5180024;57;20129;-76
2021/08/20 17:34:21;;;;;;;2.22;2.03;;;;;;;23.81;49.86;96307.84;5181010;57;20142;-76
2021/08/20 17:39:23;;;;;;;2.20;2.00;;;;;;;23.52;52.18;96306.22;5180451;57;20221;-76
2021/08/20 17:44:26;;;;;;;1.88;1.77;;;;;;;23.25;53.19;96316.81;5180613;57;20119;-76
2021/08/20 17:49:28;;;;;;;2.88;1.80;;;;;;;22.87;54.00;96326.13;5180403;57;20120;-76
2021/08/20 17:54:32;;;;;;;1.85;1.75;;;;;;;22.78;57.08;96333.75;5179699;57;20133;-76
2021/08/20 17:59:34;;;;;;;3.78;1.80;;;;;;;22.52;59.59;96341.41;5180456;57;20717;-76
2021/08/20 18:04:37;;;;;;;2.60;2.00;;;;;;;22.26;64.35;96330.91;5180362;57;20178;-76
2021/08/20 18:09:40;;;;;;;2.17;1.92;;;;;;;22.37;65.02;96327.88;5180273;57;20106;-75
2021/08/20 18:20:19;;;;;;;1.98;1.80;;;;;;;21.77;68.05;96350.16;5222683;47;20737;-76
2021/08/20 18:25:22;;;;;;;2.30;2.08;;;;;;;21.35;67.80;96351.03;5119899;57;20581;-77
2021/08/20 18:30:24;;;;;;;3.38;1.67;;;;;;;20.94;68.45;96353.41;5119132;57;20157;-76
2021/08/20 18:35:27;;;;;;;3.15;1.77;;;;;;;20.58;70.19;96355.63;5109289;57;20131;-75
2021/08/20 18:40:32;;;;;;;2.78;1.90;;;;;;;20.62;70.20;96370.13;5110817;57;20150;-76
2021/08/20 18:45:34;;;;;;;2.35;1.77;;;;;;;20.58;71.08;96372.47;5119546;57;20707;-76
2021/08/20 18:50:41;;;;;;;2.15;1.90;;;;;;;20.50;71.26;96385.56;5118901;57;20141;-76
2021/08/20 18:55:45;;;;;;;3.92;2.08;;;;;;;20.26;73.36;96389.16;5119616;57;20118;-76
2021/08/20 19:00:47;;;;;;;2.45;1.65;;;;;;;20.18;73.26;96393.00;5118569;57;20136;-76
2021/08/20 19:05:50;;;;;;;2.47;2.03;;;;;;;19.82;73.57;96400.72;5118519;57;20157;-75
2021/08/20 19:10:52;;;;;;;4.22;1.80;;;;;;;19.74;74.23;96406.13;5119329;57;20131;-75
2021/08/20 19:15:55;;;;;;;1.70;1.60;;;;;;;19.57;75.08;96413.91;5116086;57;20148;-76
2021/08/20 19:20:57;;;;;;;2.03;1.83;;;;;;;19.59;75.41;96411.34;5119833;57;20127;-75
2021/08/20 19:26:00;;;;;;;2.00;1.80;;;;;;;19.59;76.21;96418.97;5141500;57;20215;-74
2021/08/20 19:31:03;;;;;;;3.45;2.00;;;;;;;19.51;75.81;96420.81;5133053;57;20153;-75
2021/08/20 19:36:05;;;;;;;1.63;1.52;;;;;;;19.34;76.76;96420.88;5113646;57;20604;-75
2021/08/20 19:41:08;;;;;;;2.60;1.60;;;;;;;19.10;77.97;96415.16;5112616;57;20123;-75
2021/08/20 19:46:10;;;;;;;1.63;1.52;;;;;;;18.85;78.94;96427.50;5118186;57;20775;-75
2021/08/20 19:51:12;;;;;;;4.50;2.20;;;;;;;18.88;78.97;96429.28;5117607;57;20593;-75
2021/08/20 19:56:15;;;;;;;4.43;2.13;;;;;;;18.91;78.14;96433.81;5116003;57;20728;-75
2021/08/20 20:01:18;;;;;;;1.98;1.83;;;;;;;18.96;79.74;96439.41;5116165;58;20123;-75
2021/08/20 20:06:20;;;;;;;2.03;1.83;;;;;;;18.97;78.74;96438.16;5116406;58;20118;-75
2021/08/20 20:11:23;;;;;;;2.50;1.95;;;;;;;18.95;79.09;96437.13;5109623;58;20171;-74
2021/08/20 20:16:25;;;;;;;1.73;1.63;;;;;;;18.93;78.65;96443.22;5118343;58;20171;-75
2021/08/20 20:21:27;;;;;;;2.45;2.20;;;;;;;18.84;79.00;96445.59;5118371;58;20607;-75
2021/08/20 20:26:30;;;;;;;4.90;1.83;;;;;;;18.59;79.58;96450.97;5118835;58;20118;-74
2021/08/20 20:31:32;;;;;;;3.97;2.03;;;;;;;18.51;79.96;96449.22;5120792;57;20170;-75
2021/08/20 20:36:34;;;;;;;2.72;1.80;;;;;;;18.36;81.15;96455.03;5112918;57;20144;-75
2021/08/20 20:41:37;;;;;;;3.17;2.10;;;;;;;18.34;81.12;96452.00;5122017;57;20126;-75
2021/08/20 20:46:39;;;;;;;2.22;2.03;;;;;;;18.41;80.93;96456.31;5121251;57;20122;-74
2021/08/20 20:51:41;;;;;;;2.33;2.13;;;;;;;18.37;80.77;96455.81;5121845;57;20173;-75
2021/08/20 20:56:44;;;;;;;2.40;2.20;;;;;;;18.24;81.84;96464.75;5121023;57;20582;-74
2021/08/20 21:01:46;;;;;;;2.00;1.90;;;;;;;18.23;81.48;96463.19;5121234;57;20118;-75
2021/08/20 21:06:48;;;;;;;3.38;2.22;;;;;;;18.10;81.64;96465.75;5112344;57;20832;-74
2021/08/20 21:11:51;;;;;;;3.55;2.17;;;;;;;17.99;82.25;96462.97;5121008;57;20126;-76
2021/08/20 21:16:53;;;;;;;3.60;1.92;;;;;;;17.88;82.76;96463.72;5112170;57;20156;-76
2021/08/20 21:21:56;;;;;;;3.45;2.40;;;;;;;17.84;83.01;96468.03;5120644;57;20140;-75
2021/08/20 21:26:58;;;;;;;2.50;2.30;;;;;;;17.84;82.76;96470.84;5120621;57;20153;-76
2021/08/20 21:32:00;;;;;;;2.58;2.35;;;;;;;17.89;82.23;96472.84;5120844;57;20127;-76
2021/08/20 21:37:03;;;;;;;2.92;2.47;;;;;;;17.91;82.27;96475.94;5120749;57;20152;-76
2021/08/20 21:42:06;;;;;;;2.70;2.42;;;;;;;17.88;82.04;96468.56;5111741;57;20144;-76
2021/08/20 21:47:08;;;;;;;2.45;2.25;;;;;;;17.84;82.26;96474.38;5120827;57;20685;-75
2021/08/20 21:52:11;;;;;;;4.88;2.53;;;;;;;17.64;82.23;96471.06;5120547;57;20140;-75
2021/08/20 21:57:13;;;;;;;3.83;2.53;;;;;;;17.44;82.39;96469.19;5120164;57;20144;-75
2021/08/20 22:02:16;;;;;;;2.78;2.50;;;;;;;17.39;82.96;96480.38;5120376;57;20141;-77
2021/08/20 22:07:18;;;;;;;4.28;2.38;;;;;;;17.33;83.10;96483.13;5120074;57;20162;-75
2021/08/20 22:12:21;;;;;;;2.80;2.45;;;;;;;17.30;83.02;96486.19;5120189;57;20149;-75
2021/08/20 22:17:23;;;;;;;8.13;2.40;;;;;;;17.28;82.62;96477.56;5119937;57;20131;-75
2021/08/20 22:22:25;;;;;;;7.93;2.45;;;;;;;17.13;83.66;96480.53;5111147;57;20127;-76
2021/08/20 22:27:28;;;;;;;2.53;2.33;;;;;;;17.08;83.20;96482.03;5120356;57;20662;-75
2021/08/20 22:32:30;;;;;;;6.00;2.40;;;;;;;16.99;83.25;96473.88;5119896;57;20126;-75
2021/08/20 22:37:32;;;;;;;2.40;2.20;;;;;;;16.95;83.64;96481.72;5110979;57;20195;-75
2021/08/20 22:42:36;;;;;;;6.97;2.63;;;;;;;16.91;84.19;96472.84;5119792;57;20167;-75
2021/08/20 22:47:39;;;;;;;2.75;2.35;;;;;;;16.91;84.42;96472.84;5119595;57;20145;-75
2021/08/20 22:52:42;;;;;;;3.38;2.33;;;;;;;16.90;84.09;96471.28;5119629;57;20757;-75
2021/08/20 22:57:46;;;;;;;2.45;2.25;;;;;;;16.79;84.45;96468.44;5110791;57;20140;-75
2021/08/20 23:02:50;;;;;;;3.88;2.65;;;;;;;16.58;85.42;96474.69;5119908;57;20131;-75
2021/08/20 23:07:52;;;;;;;3.20;2.40;;;;;;;16.69;84.55;96469.91;5119160;57;20141;-75
2021/08/20 23:12:55;;;;;;;3.30;2.22;;;;;;;16.71;84.21;96464.63;5119315;57;20130;-75
2021/08/20 23:17:58;;;;;;;4.53;2.72;;;;;;;16.67;84.75;96474.50;5118813;57;20153;-75
2021/08/20 23:23:00;;;;;;;2.28;2.08;;;;;;;16.47;85.08;96470.53;5119342;57;20664;-75
2021/08/20 23:28:03;;;;;;;2.63;2.40;;;;;;;16.29;85.88;96465.34;5119007;57;20136;-75
2021/08/20 23:33:06;;;;;;;2.92;2.55;;;;;;;16.27;85.51;96467.84;5119235;57;20140;-75
2021/08/20 23:38:12;;;;;;;2.92;2.65;;;;;;;16.29;85.04;96454.19;5111896;57;20635;-75
2021/08/20 23:43:15;;;;;;;2.97;2.63;;;;;;;16.25;85.51;96470.38;5119050;57;20127;-76
2021/08/20 23:48:17;;;;;;;2.70;2.50;;;;;;;16.31;84.86;96460.03;5118664;57;20145;-75
2021/08/20 23:53:20;;;;;;;3.35;2.60;;;;;;;16.24;85.03;96452.09;5117963;57;20127;-75
2021/08/20 23:58:22;;;;;;;3.75;2.58;;;;;;;16.17;84.71;96449.03;5133708;57;20657;-75
